createdAt,value
2019-04-11T00:00:52.242Z,1017.93
2019-04-11T00:01:53.453Z,1017.91
2019-04-11T00:02:53.214Z,1017.93
2019-04-11T00:03:53.457Z,1017.94
2019-04-11T00:04:52.555Z,1017.96
2019-04-11T00:05:52.882Z,1017.96
2019-04-11T00:06:52.171Z,1017.99
2019-04-11T00:07:52.290Z,1017.99
2019-04-11T00:08:52.375Z,1017.98
2019-04-11T00:09:52.147Z,1017.98
2019-04-11T00:10:53.421Z,1018.04
2019-04-11T00:11:52.415Z,1018.04
2019-04-11T00:12:52.111Z,1017.99
2019-04-11T00:13:52.147Z,1017.99
2019-04-11T00:14:52.088Z,1018.02
2019-04-11T00:15:52.955Z,1018.02
2019-04-11T00:16:53.107Z,1018.07
2019-04-11T00:17:52.336Z,1017.99
2019-04-11T00:18:52.045Z,1018.02
2019-04-11T00:19:52.052Z,1018.06
2019-04-11T00:20:52.724Z,1018.06
2019-04-11T00:21:52.948Z,1018.09
2019-04-11T00:22:52.638Z,1018.10
2019-04-11T00:23:51.987Z,1018.10
2019-04-11T00:24:52.009Z,1018.08
2019-04-11T00:25:51.958Z,1018.10
2019-04-11T00:26:52.724Z,1018.11
2019-04-11T00:27:53.060Z,1018.10
2019-04-11T00:28:52.100Z,1018.16
2019-04-11T00:29:51.937Z,1018.17
2019-04-11T00:30:52.510Z,1018.18
2019-04-11T00:31:52.774Z,1018.21
2019-04-11T00:32:51.905Z,1018.15
2019-04-11T00:33:51.873Z,1018.21
2019-04-11T00:34:51.879Z,1018.23
2019-04-11T00:35:52.243Z,1018.18
2019-04-11T00:36:52.673Z,1018.21
2019-04-11T00:37:51.829Z,1018.19
2019-04-11T00:38:51.823Z,1018.25
2019-04-11T00:39:52.123Z,1018.23
2019-04-11T00:40:51.805Z,1018.23
2019-04-11T00:41:52.377Z,1018.21
2019-04-11T00:42:52.619Z,1018.21
2019-04-11T00:43:52.573Z,1018.17
2019-04-11T00:44:51.775Z,1018.24
2019-04-11T00:45:51.918Z,1018.23
2019-04-11T00:46:52.889Z,1018.22
2019-04-11T00:47:51.727Z,1018.22
2019-04-11T00:48:52.833Z,1018.22
2019-04-11T00:49:51.726Z,1018.18
2019-04-11T00:50:51.744Z,1018.20
2019-04-11T00:51:51.959Z,1018.17
2019-04-11T00:52:51.724Z,1018.21
2019-04-11T00:53:52.063Z,1018.16
2019-04-11T00:54:51.671Z,1018.16
2019-04-11T00:55:51.635Z,1018.17
2019-04-11T00:56:52.648Z,1018.17
2019-04-11T00:57:51.606Z,1018.20
2019-04-11T00:58:52.043Z,1018.16
2019-04-11T00:59:51.613Z,1018.16
2019-04-11T01:00:51.575Z,1018.17
2019-04-11T01:01:51.613Z,1018.16
2019-04-11T01:02:51.580Z,1018.24
2019-04-11T01:03:51.622Z,1018.19
2019-04-11T01:04:51.549Z,1018.18
2019-04-11T01:05:51.966Z,1018.22
2019-04-11T01:06:52.238Z,1018.21
2019-04-11T01:07:51.497Z,1018.20
2019-04-11T01:08:51.645Z,1018.24
2019-04-11T01:09:52.658Z,1018.24
2019-04-11T01:10:51.813Z,1018.23
2019-04-11T01:11:52.202Z,1018.22
2019-04-11T01:12:51.562Z,1018.23
2019-04-11T01:13:54.635Z,1018.27
2019-04-11T01:14:51.439Z,1018.27
2019-04-11T01:15:52.360Z,1018.25
2019-04-11T01:16:52.604Z,1018.27
2019-04-11T01:17:51.737Z,1018.24
2019-04-11T01:18:52.040Z,1018.32
2019-04-11T01:19:51.387Z,1018.31
2019-04-11T01:20:51.527Z,1018.34
2019-04-11T01:21:51.343Z,1018.29
2019-04-11T01:22:51.342Z,1018.30
2019-04-11T01:23:51.371Z,1018.29
2019-04-11T01:24:52.318Z,1018.32
2019-04-11T01:25:51.327Z,1018.34
2019-04-11T01:26:51.772Z,1018.41
2019-04-11T01:27:51.461Z,1018.35
2019-04-11T01:28:52.431Z,1018.38
2019-04-11T01:29:51.570Z,1018.37
2019-04-11T01:30:51.369Z,1018.34
2019-04-11T01:31:51.670Z,1018.37
2019-04-11T01:32:51.229Z,1018.34
2019-04-11T01:33:51.815Z,1018.34
2019-04-11T01:34:51.276Z,1018.33
2019-04-11T01:35:51.213Z,1018.35
2019-04-11T01:36:51.343Z,1018.30
2019-04-11T01:37:52.213Z,1018.30
2019-04-11T01:38:51.163Z,1018.34
2019-04-11T01:39:51.644Z,1018.33
2019-04-11T01:40:51.155Z,1018.32
2019-04-11T01:41:51.161Z,1018.33
2019-04-11T01:42:51.389Z,1018.34
2019-04-11T01:43:56.459Z,1018.35
2019-04-11T01:44:52.692Z,1018.32
2019-04-11T01:45:51.811Z,1018.39
2019-04-11T01:46:51.084Z,1018.34
2019-04-11T01:47:51.120Z,1018.39
2019-04-11T01:48:52.055Z,1018.35
2019-04-11T01:49:51.039Z,1018.31
2019-04-11T01:50:51.823Z,1018.34
2019-04-11T01:51:51.024Z,1018.34
2019-04-11T01:52:51.016Z,1018.38
2019-04-11T01:53:51.119Z,1018.40
2019-04-11T01:54:51.874Z,1018.37
2019-04-11T01:55:50.989Z,1018.40
2019-04-11T01:56:51.637Z,1018.39
2019-04-11T01:57:51.905Z,1018.40
2019-04-11T01:58:51.038Z,1018.42
2019-04-11T01:59:51.334Z,1018.45
2019-04-11T02:00:51.004Z,1018.46
2019-04-11T02:01:50.918Z,1018.46
2019-04-11T02:02:50.899Z,1018.49
2019-04-11T02:03:51.731Z,1018.48
2019-04-11T02:04:50.869Z,1018.43
2019-04-11T02:05:51.609Z,1018.45
2019-04-11T02:06:51.048Z,1018.44
2019-04-11T02:07:51.072Z,1018.45
2019-04-11T02:08:51.377Z,1018.44
2019-04-11T02:09:50.823Z,1018.48
2019-04-11T02:10:50.877Z,1018.49
2019-04-11T02:11:51.946Z,1018.49
2019-04-11T02:12:51.099Z,1018.50
2019-04-11T02:13:50.768Z,1018.49
2019-04-11T02:14:50.761Z,1018.54
2019-04-11T02:15:50.759Z,1018.52
2019-04-11T02:16:51.130Z,1018.53
2019-04-11T02:17:50.964Z,1018.53
2019-04-11T02:18:51.874Z,1018.51
2019-04-11T02:19:50.706Z,1018.55
2019-04-11T02:20:51.377Z,1018.54
2019-04-11T02:21:51.724Z,1018.55
2019-04-11T02:22:50.805Z,1018.57
2019-04-11T02:23:51.116Z,1018.60
2019-04-11T02:24:50.645Z,1018.60
2019-04-11T02:25:50.642Z,1018.62
2019-04-11T02:26:50.656Z,1018.59
2019-04-11T02:27:50.616Z,1018.57
2019-04-11T02:28:50.920Z,1018.56
2019-04-11T02:29:50.941Z,1018.59
2019-04-11T02:30:51.235Z,1018.55
2019-04-11T02:31:50.815Z,1018.58
2019-04-11T02:32:51.871Z,1018.59
2019-04-11T02:33:51.241Z,1018.59
2019-04-11T02:34:52.371Z,1018.57
2019-04-11T02:35:51.850Z,1018.57
2019-04-11T02:36:51.347Z,1018.59
2019-04-11T02:37:52.062Z,1018.59
2019-04-11T02:38:55.097Z,1018.61
2019-04-11T02:39:52.056Z,1018.59
2019-04-11T02:40:50.490Z,1018.58
2019-04-11T02:41:52.679Z,1018.61
2019-04-11T02:42:51.960Z,1018.62
2019-04-11T02:43:50.979Z,1018.62
2019-04-11T02:45:06.395Z,1018.70
2019-04-11T02:46:04.534Z,1018.67
2019-04-11T02:47:00.689Z,1018.75
2019-04-11T02:47:53.957Z,1018.70
2019-04-11T02:48:52.037Z,1018.78
2019-04-11T02:49:51.805Z,1018.69
2019-04-11T02:50:50.888Z,1018.73
2019-04-11T02:51:51.298Z,1018.75
2019-04-11T02:52:52.119Z,1018.72
2019-04-11T02:53:51.875Z,1018.79
2019-04-11T02:54:50.334Z,1018.78
2019-04-11T02:55:51.871Z,1018.78
2019-04-11T02:56:52.388Z,1018.78
2019-04-11T02:57:50.813Z,1018.79
2019-04-11T02:58:50.479Z,1018.77
2019-04-11T02:59:51.227Z,1018.74
2019-04-11T03:00:53.026Z,1018.78
2019-04-11T03:01:51.030Z,1018.78
2019-04-11T03:02:52.556Z,1018.84
2019-04-11T03:03:51.833Z,1018.78
2019-04-11T03:04:51.022Z,1018.77
2019-04-11T03:05:50.850Z,1018.82
2019-04-11T03:06:51.849Z,1018.81
2019-04-11T03:07:50.420Z,1018.78
2019-04-11T03:08:50.887Z,1018.82
2019-04-11T03:09:51.042Z,1018.78
2019-04-11T03:10:51.414Z,1018.83
2019-04-11T03:11:51.535Z,1018.83
2019-04-11T03:12:50.142Z,1018.87
2019-04-11T03:13:50.483Z,1018.78
2019-04-11T03:15:12.639Z,1018.86
2019-04-11T03:16:07.383Z,1018.81
2019-04-11T03:17:01.165Z,1018.89
2019-04-11T03:17:55.406Z,1018.89
2019-04-11T03:19:08.135Z,1018.87
2019-04-11T03:20:02.767Z,1018.84
2019-04-11T03:20:56.822Z,1018.87
2019-04-11T03:21:52.411Z,1018.90
2019-04-11T03:22:56.898Z,1018.87
2019-04-11T03:23:51.450Z,1018.84
2019-04-11T03:24:51.218Z,1018.87
2019-04-11T03:25:49.982Z,1018.91
2019-04-11T03:26:52.034Z,1018.92
2019-04-11T03:27:51.646Z,1018.93
2019-04-11T03:28:54.111Z,1018.93
2019-04-11T03:29:51.631Z,1018.97
2019-04-11T03:31:24.409Z,1018.98
2019-04-11T03:32:34.579Z,1018.92
2019-04-11T03:34:30.549Z,1018.97
2019-04-11T03:35:45.744Z,1018.95
2019-04-11T03:36:38.003Z,1019.01
2019-04-11T03:37:18.976Z,1019.00
2019-04-11T03:38:13.773Z,1019.00
2019-04-11T03:39:13.087Z,1019.00
2019-04-11T03:40:11.446Z,1019.02
2019-04-11T03:41:12.051Z,1019.03
2019-04-11T03:42:04.116Z,1019.01
2019-04-11T03:43:01.213Z,1018.97
2019-04-11T03:43:58.954Z,1019.00
2019-04-11T03:45:17.603Z,1019.00
2019-04-11T03:46:11.987Z,1019.00
2019-04-11T03:47:10.121Z,1019.02
2019-04-11T03:48:06.171Z,1019.03
2019-04-11T03:49:00.119Z,1019.00
2019-04-11T03:49:55.762Z,1019.01
2019-04-11T03:50:53.259Z,1019.02
2019-04-11T03:51:50.708Z,1019.01
2019-04-11T03:52:51.702Z,1019.00
2019-04-11T03:53:51.426Z,1018.98
2019-04-11T03:54:49.795Z,1018.99
2019-04-11T03:55:49.649Z,1018.97
2019-04-11T03:56:51.177Z,1019.02
2019-04-11T03:57:51.385Z,1019.03
2019-04-11T03:58:50.371Z,1019.00
2019-04-11T03:59:49.666Z,1018.97
2019-04-11T04:00:52.719Z,1018.98
2019-04-11T04:01:50.848Z,1018.98
2019-04-11T04:02:49.704Z,1019.03
2019-04-11T04:03:51.101Z,1019.02
2019-04-11T04:04:51.238Z,1019.08
2019-04-11T04:05:50.616Z,1019.06
2019-04-11T04:06:49.946Z,1019.06
2019-04-11T04:07:49.512Z,1019.06
2019-04-11T04:08:50.752Z,1019.10
2019-04-11T04:09:51.067Z,1019.08
2019-04-11T04:10:50.048Z,1019.15
2019-04-11T04:11:51.102Z,1019.13
2019-04-11T04:12:49.482Z,1019.10
2019-04-11T04:13:50.208Z,1019.12
2019-04-11T04:14:49.606Z,1019.11
2019-04-11T04:16:01.872Z,1019.15
2019-04-11T04:16:52.788Z,1019.15
2019-04-11T04:17:49.777Z,1019.19
2019-04-11T04:18:49.402Z,1019.20
2019-04-11T04:19:49.944Z,1019.18
2019-04-11T04:20:51.047Z,1019.24
2019-04-11T04:21:50.965Z,1019.21
2019-04-11T04:22:50.083Z,1019.28
2019-04-11T04:23:49.771Z,1019.31
2019-04-11T04:24:51.112Z,1019.32
2019-04-11T04:25:49.462Z,1019.32
2019-04-11T04:26:50.280Z,1019.33
2019-04-11T04:27:49.767Z,1019.31
2019-04-11T04:28:49.297Z,1019.34
2019-04-11T04:29:53.245Z,1019.32
2019-04-11T04:30:51.674Z,1019.35
2019-04-11T04:31:50.763Z,1019.38
2019-04-11T04:32:49.420Z,1019.38
2019-04-11T04:33:49.240Z,1019.40
2019-04-11T04:34:50.829Z,1019.40
2019-04-11T04:35:49.598Z,1019.41
2019-04-11T04:36:49.721Z,1019.43
2019-04-11T04:37:49.825Z,1019.43
2019-04-11T04:38:49.416Z,1019.46
2019-04-11T04:39:51.822Z,1019.50
2019-04-11T04:41:05.819Z,1019.49
2019-04-11T04:41:58.798Z,1019.50
2019-04-11T04:42:53.305Z,1019.49
2019-04-11T04:43:50.739Z,1019.50
2019-04-11T04:44:50.807Z,1019.48
2019-04-11T04:46:06.627Z,1019.50
2019-04-11T04:47:00.256Z,1019.50
2019-04-11T04:47:56.939Z,1019.53
2019-04-11T04:48:51.480Z,1019.53
2019-04-11T04:49:49.069Z,1019.54
2019-04-11T04:50:52.295Z,1019.54
2019-04-11T04:51:51.139Z,1019.55
2019-04-11T04:52:49.311Z,1019.57
2019-04-11T04:53:50.159Z,1019.55
2019-04-11T04:54:49.091Z,1019.54
2019-04-11T04:55:50.304Z,1019.57
2019-04-11T04:56:50.306Z,1019.61
2019-04-11T04:57:48.967Z,1019.59
2019-04-11T04:58:50.649Z,1019.61
2019-04-11T04:59:49.065Z,1019.61
2019-04-11T05:00:51.123Z,1019.64
2019-04-11T05:01:48.922Z,1019.60
2019-04-11T05:02:50.340Z,1019.62
2019-04-11T05:03:50.881Z,1019.65
2019-04-11T05:04:48.885Z,1019.62
2019-04-11T05:05:48.901Z,1019.62
2019-04-11T05:06:50.903Z,1019.58
2019-04-11T05:07:49.847Z,1019.59
2019-04-11T05:08:49.308Z,1019.65
2019-04-11T05:09:50.353Z,1019.67
2019-04-11T05:10:49.194Z,1019.64
2019-04-11T05:11:48.874Z,1019.67
2019-04-11T05:12:48.798Z,1019.68
2019-04-11T05:13:51.386Z,1019.68
2019-04-11T05:14:49.836Z,1019.67
2019-04-11T05:15:50.356Z,1019.68
2019-04-11T05:16:50.443Z,1019.70
2019-04-11T05:17:49.194Z,1019.71
2019-04-11T05:18:48.737Z,1019.72
2019-04-11T05:19:48.838Z,1019.74
2019-04-11T05:20:48.734Z,1019.76
2019-04-11T05:21:49.824Z,1019.76
2019-04-11T05:22:49.287Z,1019.80
2019-04-11T05:23:48.678Z,1019.77
2019-04-11T05:24:48.669Z,1019.79
2019-04-11T05:25:48.733Z,1019.80
2019-04-11T05:26:48.655Z,1019.78
2019-04-11T05:27:49.671Z,1019.83
2019-04-11T05:28:48.868Z,1019.81
2019-04-11T05:29:49.465Z,1019.84
2019-04-11T05:30:49.094Z,1019.84
2019-04-11T05:31:49.254Z,1019.83
2019-04-11T05:32:49.307Z,1019.89
2019-04-11T05:33:49.698Z,1019.91
2019-04-11T05:34:49.045Z,1019.94
2019-04-11T05:35:48.566Z,1019.95
2019-04-11T05:36:49.816Z,1019.94
2019-04-11T05:37:48.525Z,1019.99
2019-04-11T05:38:48.681Z,1020.01
2019-04-11T05:39:48.507Z,1020.02
2019-04-11T05:40:48.537Z,1019.98
2019-04-11T05:41:49.836Z,1019.98
2019-04-11T05:42:53.409Z,1019.97
2019-04-11T05:43:49.551Z,1020.02
2019-04-11T05:44:49.864Z,1020.01
2019-04-11T05:45:52.222Z,1020.04
2019-04-11T05:46:55.765Z,1020.02
2019-04-11T05:47:52.987Z,1020.02
2019-04-11T05:48:48.407Z,1019.98
2019-04-11T05:49:48.483Z,1020.00
2019-04-11T05:50:51.084Z,1019.98
2019-04-11T05:51:49.351Z,1020.02
2019-04-11T05:52:48.360Z,1020.03
2019-04-11T05:53:50.085Z,1020.07
2019-04-11T05:54:49.782Z,1020.01
2019-04-11T05:55:48.334Z,1020.06
2019-04-11T05:56:53.040Z,1020.02
2019-04-11T05:57:50.210Z,1019.99
2019-04-11T05:58:49.351Z,1020.02
2019-04-11T05:59:49.964Z,1020.01
2019-04-11T06:00:48.898Z,1020.03
2019-04-11T06:01:48.841Z,1019.99
2019-04-11T06:02:49.230Z,1020.05
2019-04-11T06:03:49.232Z,1020.00
2019-04-11T06:04:51.980Z,1020.05
2019-04-11T06:05:49.933Z,1020.02
2019-04-11T06:06:48.229Z,1020.07
2019-04-11T06:07:50.622Z,1020.07
2019-04-11T06:08:48.309Z,1020.11
2019-04-11T06:09:48.258Z,1020.08
2019-04-11T06:10:48.382Z,1020.13
2019-04-11T06:11:52.269Z,1020.08
2019-04-11T06:12:49.159Z,1020.13
2019-04-11T06:13:48.867Z,1020.11
2019-04-11T06:14:49.230Z,1020.12
2019-04-11T06:15:49.180Z,1020.13
2019-04-11T06:16:53.722Z,1020.17
2019-04-11T06:17:50.113Z,1020.16
2019-04-11T06:18:48.248Z,1020.22
2019-04-11T06:19:48.098Z,1020.22
2019-04-11T06:20:48.263Z,1020.17
2019-04-11T06:21:48.490Z,1020.22
2019-04-11T06:22:48.051Z,1020.20
2019-04-11T06:23:48.018Z,1020.24
2019-04-11T06:24:48.251Z,1020.21
2019-04-11T06:25:49.134Z,1020.21
2019-04-11T06:26:48.924Z,1020.24
2019-04-11T06:27:47.971Z,1020.22
2019-04-11T06:28:47.987Z,1020.23
2019-04-11T06:29:47.958Z,1020.28
2019-04-11T06:30:48.540Z,1020.27
2019-04-11T06:31:47.925Z,1020.22
2019-04-11T06:32:47.939Z,1020.25
2019-04-11T06:33:48.993Z,1020.25
2019-04-11T06:34:47.895Z,1020.25
2019-04-11T06:35:48.309Z,1020.28
2019-04-11T06:36:48.275Z,1020.26
2019-04-11T06:37:47.902Z,1020.24
2019-04-11T06:38:49.169Z,1020.27
2019-04-11T06:39:47.860Z,1020.31
2019-04-11T06:40:48.133Z,1020.31
2019-04-11T06:41:48.621Z,1020.29
2019-04-11T06:42:47.827Z,1020.27
2019-04-11T06:43:47.990Z,1020.26
2019-04-11T06:44:48.078Z,1020.27
2019-04-11T06:45:48.106Z,1020.28
2019-04-11T06:46:54.037Z,1020.26
2019-04-11T06:47:49.234Z,1020.29
2019-04-11T06:48:47.777Z,1020.30
2019-04-11T06:49:48.647Z,1020.26
2019-04-11T06:50:47.780Z,1020.32
2019-04-11T06:51:48.394Z,1020.32
2019-04-11T06:52:48.795Z,1020.27
2019-04-11T06:53:48.419Z,1020.36
2019-04-11T06:54:47.673Z,1020.35
2019-04-11T06:55:47.723Z,1020.35
2019-04-11T06:56:47.647Z,1020.30
2019-04-11T06:57:48.090Z,1020.31
2019-04-11T06:58:47.980Z,1020.34
2019-04-11T06:59:48.439Z,1020.34
2019-04-11T07:00:47.611Z,1020.39
2019-04-11T07:01:47.658Z,1020.39
2019-04-11T07:02:48.689Z,1020.41
2019-04-11T07:03:47.569Z,1020.42
2019-04-11T07:04:47.596Z,1020.44
2019-04-11T07:05:47.548Z,1020.40
2019-04-11T07:06:48.194Z,1020.40
2019-04-11T07:07:47.591Z,1020.38
2019-04-11T07:08:47.534Z,1020.42
2019-04-11T07:09:47.507Z,1020.42
2019-04-11T07:10:47.501Z,1020.44
2019-04-11T07:11:48.479Z,1020.44
2019-04-11T07:12:47.476Z,1020.44
2019-04-11T07:13:47.708Z,1020.46
2019-04-11T07:14:47.623Z,1020.49
2019-04-11T07:15:48.470Z,1020.47
2019-04-11T07:16:54.761Z,1020.48
2019-04-11T07:17:48.416Z,1020.50
2019-04-11T07:18:48.411Z,1020.53
2019-04-11T07:19:47.991Z,1020.52
2019-04-11T07:20:47.388Z,1020.52
2019-04-11T07:21:48.248Z,1020.53
2019-04-11T07:22:47.362Z,1020.57
2019-04-11T07:23:47.383Z,1020.55
2019-04-11T07:24:47.492Z,1020.52
2019-04-11T07:25:47.464Z,1020.50
2019-04-11T07:26:47.934Z,1020.49
2019-04-11T07:27:48.528Z,1020.53
2019-04-11T07:28:47.964Z,1020.51
2019-04-11T07:29:48.326Z,1020.47
2019-04-11T07:30:47.401Z,1020.51
2019-04-11T07:31:48.296Z,1020.55
2019-04-11T07:32:47.757Z,1020.50
2019-04-11T07:33:47.423Z,1020.49
2019-04-11T07:34:47.811Z,1020.50
2019-04-11T07:35:47.714Z,1020.52
2019-04-11T07:36:48.374Z,1020.53
2019-04-11T07:37:47.611Z,1020.51
2019-04-11T07:38:49.233Z,1020.50
2019-04-11T07:39:47.354Z,1020.47
2019-04-11T07:40:47.540Z,1020.46
2019-04-11T07:41:47.889Z,1020.50
2019-04-11T07:42:47.153Z,1020.50
2019-04-11T07:43:47.727Z,1020.49
2019-04-11T07:44:47.302Z,1020.54
2019-04-11T07:45:47.147Z,1020.48
2019-04-11T07:46:47.352Z,1020.52
2019-04-11T07:47:48.189Z,1020.58
2019-04-11T07:48:47.095Z,1020.52
2019-04-11T07:49:47.165Z,1020.53
2019-04-11T07:50:47.059Z,1020.51
2019-04-11T07:51:47.039Z,1020.58
2019-04-11T07:52:47.043Z,1020.55
2019-04-11T07:53:48.076Z,1020.59
2019-04-11T07:54:47.781Z,1020.62
2019-04-11T07:55:46.997Z,1020.60
2019-04-11T07:56:46.985Z,1020.57
2019-04-11T07:57:46.978Z,1020.62
2019-04-11T07:58:47.890Z,1020.57
2019-04-11T07:59:46.961Z,1020.50
2019-04-11T08:00:49.952Z,1020.58
2019-04-11T08:01:47.002Z,1020.57
2019-04-11T08:02:47.802Z,1020.54
2019-04-11T08:03:47.048Z,1020.58
2019-04-11T08:04:47.318Z,1020.54
2019-04-11T08:05:46.895Z,1020.59
2019-04-11T08:06:47.944Z,1020.55
2019-04-11T08:07:46.914Z,1020.56
2019-04-11T08:08:47.133Z,1020.63
2019-04-11T08:09:46.849Z,1020.61
2019-04-11T08:10:46.835Z,1020.61
2019-04-11T08:11:47.806Z,1020.55
2019-04-11T08:12:47.945Z,1020.55
2019-04-11T08:13:47.191Z,1020.62
2019-04-11T08:14:46.811Z,1020.56
2019-04-11T08:15:46.813Z,1020.61
2019-04-11T08:16:46.925Z,1020.60
2019-04-11T08:17:47.996Z,1020.62
2019-04-11T08:18:46.744Z,1020.61
2019-04-11T08:19:47.012Z,1020.59
2019-04-11T08:20:47.793Z,1020.59
2019-04-11T08:21:46.709Z,1020.55
2019-04-11T08:22:47.518Z,1020.58
2019-04-11T08:23:47.733Z,1020.65
2019-04-11T08:24:46.881Z,1020.59
2019-04-11T08:25:47.415Z,1020.58
2019-04-11T08:26:46.659Z,1020.65
2019-04-11T08:27:56.070Z,1020.64
2019-04-11T08:28:59.277Z,1020.68
2019-04-11T08:29:49.998Z,1020.65
2019-04-11T08:30:46.901Z,1020.61
2019-04-11T08:31:46.678Z,1020.63
2019-04-11T08:32:46.608Z,1020.60
2019-04-11T08:33:46.809Z,1020.68
2019-04-11T08:34:47.865Z,1020.69
2019-04-11T08:35:46.553Z,1020.68
2019-04-11T08:36:47.687Z,1020.67
2019-04-11T08:37:47.574Z,1020.70
2019-04-11T08:38:46.767Z,1020.70
2019-04-11T08:39:47.176Z,1020.70
2019-04-11T08:40:47.186Z,1020.70
2019-04-11T08:41:47.535Z,1020.66
2019-04-11T08:42:46.777Z,1020.71
2019-04-11T08:43:47.582Z,1020.71
2019-04-11T08:44:46.463Z,1020.64
2019-04-11T08:45:46.635Z,1020.73
2019-04-11T08:46:46.900Z,1020.63
2019-04-11T08:47:49.258Z,1020.65
2019-04-11T08:48:47.437Z,1020.66
2019-04-11T08:49:46.434Z,1020.67
2019-04-11T08:50:46.982Z,1020.61
2019-04-11T08:51:47.380Z,1020.68
2019-04-11T08:52:46.558Z,1020.66
2019-04-11T08:53:46.369Z,1020.68
2019-04-11T08:54:46.377Z,1020.63
2019-04-11T08:55:53.610Z,1020.64
2019-04-11T08:56:47.472Z,1020.67
2019-04-11T08:57:46.351Z,1020.66
2019-04-11T08:58:47.035Z,1020.68
2019-04-11T08:59:46.302Z,1020.69
2019-04-11T09:00:46.409Z,1020.71
2019-04-11T09:01:47.220Z,1020.66
2019-04-11T09:02:46.262Z,1020.70
2019-04-11T09:03:59.273Z,1020.72
2019-04-11T09:04:48.229Z,1020.74
2019-04-11T09:05:47.064Z,1020.68
2019-04-11T09:06:47.168Z,1020.71
2019-04-11T09:07:46.202Z,1020.68
2019-04-11T09:08:46.933Z,1020.70
2019-04-11T09:09:47.401Z,1020.69
2019-04-11T09:10:46.391Z,1020.68
2019-04-11T09:11:46.974Z,1020.66
2019-04-11T09:12:46.807Z,1020.67
2019-04-11T09:13:47.226Z,1020.66
2019-04-11T09:14:46.486Z,1020.60
2019-04-11T09:15:46.156Z,1020.64
2019-04-11T09:16:46.117Z,1020.67
2019-04-11T09:17:56.544Z,1020.65
2019-04-11T09:18:47.088Z,1020.65
2019-04-11T09:19:47.254Z,1020.69
2019-04-11T09:20:46.071Z,1020.66
2019-04-11T09:21:46.650Z,1020.64
2019-04-11T09:22:47.124Z,1020.67
2019-04-11T09:23:46.129Z,1020.60
2019-04-11T09:24:46.477Z,1020.65
2019-04-11T09:25:48.827Z,1020.61
2019-04-11T09:26:47.884Z,1020.61
2019-04-11T09:27:47.033Z,1020.58
2019-04-11T09:28:45.994Z,1020.51
2019-04-11T09:29:46.276Z,1020.66
2019-04-11T09:30:47.228Z,1020.60
2019-04-11T09:31:48.559Z,1020.61
2019-04-11T09:32:46.529Z,1020.61
2019-04-11T09:33:47.005Z,1020.63
2019-04-11T09:34:46.116Z,1020.61
2019-04-11T09:35:47.159Z,1020.59
2019-04-11T09:36:47.170Z,1020.56
2019-04-11T09:37:46.213Z,1020.66
2019-04-11T09:38:46.456Z,1020.61
2019-04-11T09:39:45.844Z,1020.63
2019-04-11T09:40:45.844Z,1020.58
2019-04-11T09:41:46.859Z,1020.58
2019-04-11T09:42:47.024Z,1020.61
2019-04-11T09:43:46.327Z,1020.65
2019-04-11T09:44:46.732Z,1020.63
2019-04-11T09:45:45.834Z,1020.61
2019-04-11T09:46:46.218Z,1020.66
2019-04-11T09:47:45.790Z,1020.51
2019-04-11T09:48:46.322Z,1020.66
2019-04-11T09:49:45.748Z,1020.55
2019-04-11T09:50:46.832Z,1020.63
2019-04-11T09:51:45.746Z,1020.62
2019-04-11T09:52:45.719Z,1020.65
2019-04-11T09:53:45.696Z,1020.66
2019-04-11T09:54:45.691Z,1020.63
2019-04-11T09:55:45.807Z,1020.61
2019-04-11T09:56:45.684Z,1020.68
2019-04-11T09:57:46.133Z,1020.54
2019-04-11T09:58:45.646Z,1020.61
2019-04-11T09:59:45.663Z,1020.60
2019-04-11T10:00:45.613Z,1020.56
2019-04-11T10:01:45.632Z,1020.66
2019-04-11T10:02:46.193Z,1020.65
2019-04-11T10:03:45.612Z,1020.67
2019-04-11T10:04:45.850Z,1020.65
2019-04-11T10:05:46.754Z,1020.66
2019-04-11T10:06:46.598Z,1020.66
2019-04-11T10:07:46.083Z,1020.65
2019-04-11T10:08:46.627Z,1020.65
2019-04-11T10:09:46.312Z,1020.68
2019-04-11T10:10:46.559Z,1020.65
2019-04-11T10:11:46.337Z,1020.70
2019-04-11T10:12:46.526Z,1020.64
2019-04-11T10:13:45.476Z,1020.61
2019-04-11T10:14:45.954Z,1020.63
2019-04-11T10:15:45.493Z,1020.65
2019-04-11T10:16:46.522Z,1020.59
2019-04-11T10:17:46.394Z,1020.58
2019-04-11T10:18:45.447Z,1020.60
2019-04-11T10:19:46.434Z,1020.88
2019-04-11T10:20:45.580Z,1020.65
2019-04-11T10:21:45.743Z,1020.59
2019-04-11T10:22:45.952Z,1020.58
2019-04-11T10:23:45.386Z,1020.59
2019-04-11T10:24:46.319Z,1020.63
2019-04-11T10:25:45.633Z,1020.64
2019-04-11T10:26:45.337Z,1020.69
2019-04-11T10:27:45.315Z,1020.64
2019-04-11T10:28:45.980Z,1020.63
2019-04-11T10:29:45.285Z,1020.66
2019-04-11T10:30:46.117Z,1020.66
2019-04-11T10:31:46.410Z,1020.67
2019-04-11T10:32:45.567Z,1020.65
2019-04-11T10:33:45.242Z,1020.62
2019-04-11T10:34:45.879Z,1020.69
2019-04-11T10:35:46.198Z,1020.63
2019-04-11T10:36:45.383Z,1020.71
2019-04-11T10:37:45.211Z,1020.69
2019-04-11T10:38:45.201Z,1020.69
2019-04-11T10:39:45.801Z,1020.68
2019-04-11T10:40:45.180Z,1020.73
2019-04-11T10:41:46.299Z,1020.67
2019-04-11T10:42:45.158Z,1020.68
2019-04-11T10:43:45.137Z,1020.73
2019-04-11T10:44:45.752Z,1020.67
2019-04-11T10:45:45.111Z,1020.68
2019-04-11T10:46:45.130Z,1020.69
2019-04-11T10:47:45.091Z,1020.77
2019-04-11T10:48:46.965Z,1020.69
2019-04-11T10:49:46.195Z,1020.68
2019-04-11T10:50:45.061Z,1020.74
2019-04-11T10:51:45.616Z,1020.73
2019-04-11T10:52:45.049Z,1020.70
2019-04-11T10:53:45.027Z,1020.67
2019-04-11T10:54:45.116Z,1020.69
2019-04-11T10:55:46.081Z,1020.78
2019-04-11T10:56:44.991Z,1020.74
2019-04-11T10:57:45.119Z,1020.76
2019-04-11T10:58:44.974Z,1020.75
2019-04-11T10:59:45.022Z,1020.74
2019-04-11T11:00:45.306Z,1020.81
2019-04-11T11:01:44.937Z,1020.77
2019-04-11T11:02:45.296Z,1020.79
2019-04-11T11:03:45.198Z,1020.79
2019-04-11T11:04:45.473Z,1020.81
2019-04-11T11:05:45.082Z,1020.81
2019-04-11T11:06:45.114Z,1020.76
2019-04-11T11:07:44.961Z,1020.84
2019-04-11T11:08:45.819Z,1020.79
2019-04-11T11:09:44.847Z,1020.80
2019-04-11T11:10:45.870Z,1020.77
2019-04-11T11:11:44.821Z,1020.76
2019-04-11T11:12:45.492Z,1020.71
2019-04-11T11:13:45.775Z,1020.76
2019-04-11T11:14:45.055Z,1020.78
2019-04-11T11:15:44.777Z,1020.77
2019-04-11T11:16:45.588Z,1020.79
2019-04-11T11:18:12.629Z,1020.80
2019-04-11T11:19:15.703Z,1020.78
2019-04-11T11:19:57.384Z,1020.81
2019-04-11T11:20:53.079Z,1020.85
2019-04-11T11:21:45.738Z,1020.80
2019-04-11T11:22:44.713Z,1020.81
2019-04-11T11:23:44.983Z,1020.79
2019-04-11T11:24:44.683Z,1020.76
2019-04-11T11:25:48.463Z,1020.81
2019-04-11T11:26:44.670Z,1020.79
2019-04-11T11:27:45.775Z,1020.80
2019-04-11T11:28:44.629Z,1020.84
2019-04-11T11:29:45.363Z,1020.82
2019-04-11T11:30:44.811Z,1020.85
2019-04-11T11:31:45.909Z,1020.84
2019-04-11T11:32:45.343Z,1020.85
2019-04-11T11:33:44.956Z,1020.86
2019-04-11T11:34:44.627Z,1020.82
2019-04-11T11:35:45.737Z,1020.92
2019-04-11T11:36:45.728Z,1020.86
2019-04-11T11:37:45.200Z,1020.88
2019-04-11T11:38:44.544Z,1020.82
2019-04-11T11:39:44.543Z,1020.96
2019-04-11T11:40:44.813Z,1020.92
2019-04-11T11:41:44.784Z,1020.96
2019-04-11T11:42:44.496Z,1020.91
2019-04-11T11:43:45.394Z,1020.90
2019-04-11T11:44:44.731Z,1020.94
2019-04-11T11:45:49.157Z,1020.98
2019-04-11T11:46:46.536Z,1020.97
2019-04-11T11:47:44.908Z,1020.99
2019-04-11T11:48:48.743Z,1020.98
2019-04-11T11:49:54.621Z,1020.89
2019-04-11T11:50:49.035Z,1020.92
2019-04-11T11:51:45.759Z,1020.99
2019-04-11T11:52:45.474Z,1020.98
2019-04-11T11:53:44.374Z,1020.96
2019-04-11T11:54:44.345Z,1021.00
2019-04-11T11:55:45.428Z,1020.99
2019-04-11T11:56:44.480Z,1021.03
2019-04-11T11:57:44.834Z,1020.96
2019-04-11T11:58:47.873Z,1021.02
2019-04-11T11:59:45.286Z,1021.01
2019-04-11T12:00:46.248Z,1020.99
2019-04-11T12:01:48.998Z,1020.97
2019-04-11T12:02:46.383Z,1020.99
2019-04-11T12:03:44.554Z,1021.03
2019-04-11T12:04:44.356Z,1021.05
2019-04-11T12:05:47.968Z,1021.04
2019-04-11T12:06:44.206Z,1021.02